NTAA/PPT METAR and TAF weather

Enter ICAO airport designator
Station Type Date Time Source
NTAA METAR 2018/12/13 23:00 UTC NOAA

NTAA 132300Z 05013KT 9999 VCSH FEW021TCU SCT060 31/24 Q1012 NOSIG


Station Type Date Time Source
NTAA Decoded METAR 2018/12/13 23:00 UTC NOAA

Tahiti-Faaa, French Polynesia (NTAA) 17-33S 149-37W 2M
Dec 13, 2018 - 06:00 PM EST / 2018.12.13 2300 UTC
Wind: from the NE (050 degrees) at 15 MPH (13 KT):0
Visibility: greater than 7 mile(s):0
Sky conditions: partly cloudy
Weather: showers in the vicinity; Towering cumulus clouds observed
Temperature: 87 F (31 C)
Heat index: 95.7 F (35.4 C):1
Dew Point: 75 F (24 C)
Relative Humidity: 66%
Pressure (altimeter): 29.88 in. Hg (1012 hPa)
ob: NTAA 132300Z 05013KT 9999 VCSH FEW021TCU SCT060 31/24 Q1012 NOSIG
cycle: 23

Station Type Date Time Source
NTAA TAF 2018/12/13 18:10 UTC NOAA

TAF NTAA 131700Z 1318/1424 05012KT 9999 FEW020 SCT050
BECMG 1403/1405 VRB02KT
BECMG 1418/1420 04012KT


Example: see airport list